sensor_id;sensor_type;location;lat;lon;timestamp;temperature;humidity
63802;DHT22;49949;43.060;25.624;2023-04-12T00:02:14;8.40;99.90
63802;DHT22;49949;43.060;25.624;2023-04-12T00:04:40;8.50;99.90
63802;DHT22;49949;43.060;25.624;2023-04-12T00:07:06;8.40;99.90
63802;DHT22;49949;43.060;25.624;2023-04-12T00:09:34;8.40;99.90
63802;DHT22;49949;43.060;25.624;2023-04-12T00:12:01;8.40;99.90
63802;DHT22;49949;43.060;25.624;2023-04-12T00:14:27;8.40;99.90
63802;DHT22;49949;43.060;25.624;2023-04-12T00:16:54;8.50;99.90
63802;DHT22;49949;43.060;25.624;2023-04-12T00:19:20;8.50;99.90
63802;DHT22;49949;43.060;25.624;2023-04-12T00:21:45;8.40;99.90
63802;DHT22;49949;43.060;25.624;2023-04-12T00:24:12;8.50;99.90
63802;DHT22;49949;43.060;25.624;2023-04-12T00:26:37;8.40;99.90
63802;DHT22;49949;43.060;25.624;2023-04-12T00:29:03;8.40;99.90
63802;DHT22;49949;43.060;25.624;2023-04-12T00:31:29;8.40;99.90
63802;DHT22;49949;43.060;25.624;2023-04-12T00:33:54;8.40;99.90
63802;DHT22;49949;43.060;25.624;2023-04-12T00:36:20;8.40;99.90
63802;DHT22;49949;43.060;25.624;2023-04-12T00:38:46;8.40;99.90
63802;DHT22;49949;43.060;25.624;2023-04-12T00:41:13;8.40;99.90
63802;DHT22;49949;43.060;25.624;2023-04-12T00:43:40;8.40;99.90
63802;DHT22;49949;43.060;25.624;2023-04-12T00:46:06;8.40;99.90
63802;DHT22;49949;43.060;25.624;2023-04-12T00:48:32;8.40;99.90
63802;DHT22;49949;43.060;25.624;2023-04-12T00:50:59;8.40;99.90
63802;DHT22;49949;43.060;25.624;2023-04-12T00:53:25;8.40;99.90
63802;DHT22;49949;43.060;25.624;2023-04-12T00:55:53;8.40;99.90
63802;DHT22;49949;43.060;25.624;2023-04-12T00:58:21;8.40;99.90
63802;DHT22;49949;43.060;25.624;2023-04-12T01:00:49;8.30;99.90
63802;DHT22;49949;43.060;25.624;2023-04-12T01:03:18;8.30;99.90
63802;DHT22;49949;43.060;25.624;2023-04-12T01:06:20;8.30;99.90
63802;DHT22;49949;43.060;25.624;2023-04-12T01:17:12;8.30;99.90
63802;DHT22;49949;43.060;25.624;2023-04-12T01:20:03;8.30;99.90
63802;DHT22;49949;43.060;25.624;2023-04-12T01:28:15;8.20;99.90
63802;DHT22;49949;43.060;25.624;2023-04-12T01:30:45;8.20;99.90
63802;DHT22;49949;43.060;25.624;2023-04-12T01:33:13;8.20;99.90
63802;DHT22;49949;43.060;25.624;2023-04-12T01:35:41;8.20;99.90
63802;DHT22;49949;43.060;25.624;2023-04-12T01:38:07;8.20;99.90
63802;DHT22;49949;43.060;25.624;2023-04-12T01:40:34;8.10;99.90
63802;DHT22;49949;43.060;25.624;2023-04-12T01:43:10;8.10;99.90
63802;DHT22;49949;43.060;25.624;2023-04-12T01:45:36;8.10;99.90
63802;DHT22;49949;43.060;25.624;2023-04-12T01:48:07;8.10;99.90
63802;DHT22;49949;43.060;25.624;2023-04-12T01:53:26;8.10;99.90
63802;DHT22;49949;43.060;25.624;2023-04-12T01:55:58;8.10;99.90
63802;DHT22;49949;43.060;25.624;2023-04-12T01:58:24;8.00;99.90
63802;DHT22;49949;43.060;25.624;2023-04-12T02:00:51;8.10;99.90
63802;DHT22;49949;43.060;25.624;2023-04-12T02:03:20;8.10;99.90
63802;DHT22;49949;43.060;25.624;2023-04-12T02:05:48;8.00;99.90
63802;DHT22;49949;43.060;25.624;2023-04-12T02:08:15;8.00;99.90
63802;DHT22;49949;43.060;25.624;2023-04-12T02:10:41;7.90;99.90
63802;DHT22;49949;43.060;25.624;2023-04-12T02:13:07;8.00;99.90
63802;DHT22;49949;43.060;25.624;2023-04-12T02:15:32;8.00;99.90
63802;DHT22;49949;43.060;25.624;2023-04-12T02:17:58;8.10;99.90
63802;DHT22;49949;43.060;25.624;2023-04-12T02:20:25;8.00;99.90
63802;DHT22;49949;43.060;25.624;2023-04-12T02:22:51;8.00;99.90
63802;DHT22;49949;43.060;25.624;2023-04-12T02:25:17;8.00;99.90
63802;DHT22;49949;43.060;25.624;2023-04-12T02:27:44;8.00;99.90
63802;DHT22;49949;43.060;25.624;2023-04-12T02:30:11;8.00;99.90
63802;DHT22;49949;43.060;25.624;2023-04-12T02:32:38;8.00;99.90
63802;DHT22;49949;43.060;25.624;2023-04-12T02:35:10;8.00;99.90
63802;DHT22;49949;43.060;25.624;2023-04-12T02:37:36;8.00;99.90
63802;DHT22;49949;43.060;25.624;2023-04-12T02:40:03;8.00;99.90
63802;DHT22;49949;43.060;25.624;2023-04-12T02:42:31;8.00;99.90
63802;DHT22;49949;43.060;25.624;2023-04-12T02:44:56;7.90;99.90
63802;DHT22;49949;43.060;25.624;2023-04-12T02:47:22;7.90;99.90
63802;DHT22;49949;43.060;25.624;2023-04-12T02:49:52;7.90;99.90
63802;DHT22;49949;43.060;25.624;2023-04-12T02:52:18;7.90;99.90
63802;DHT22;49949;43.060;25.624;2023-04-12T02:54:44;7.90;99.90
63802;DHT22;49949;43.060;25.624;2023-04-12T02:57:10;7.90;99.90
63802;DHT22;49949;43.060;25.624;2023-04-12T02:59:40;8.00;99.90
63802;DHT22;49949;43.060;25.624;2023-04-12T03:02:07;8.00;99.90
63802;DHT22;49949;43.060;25.624;2023-04-12T03:04:33;8.00;99.90
63802;DHT22;49949;43.060;25.624;2023-04-12T03:07:04;8.00;99.90
63802;DHT22;49949;43.060;25.624;2023-04-12T03:09:30;8.00;99.90
63802;DHT22;49949;43.060;25.624;2023-04-12T03:11:56;8.00;99.90
63802;DHT22;49949;43.060;25.624;2023-04-12T03:14:22;7.90;99.90
63802;DHT22;49949;43.060;25.624;2023-04-12T03:16:48;7.80;99.90
63802;DHT22;49949;43.060;25.624;2023-04-12T03:19:16;7.80;99.90
63802;DHT22;49949;43.060;25.624;2023-04-12T03:21:41;7.80;99.90
63802;DHT22;49949;43.060;25.624;2023-04-12T03:24:07;7.90;99.90
63802;DHT22;49949;43.060;25.624;2023-04-12T03:26:33;7.80;99.90
63802;DHT22;49949;43.060;25.624;2023-04-12T03:29:01;7.80;99.90
63802;DHT22;49949;43.060;25.624;2023-04-12T03:31:29;7.80;99.90
63802;DHT22;49949;43.060;25.624;2023-04-12T03:33:55;7.90;99.90
63802;DHT22;49949;43.060;25.624;2023-04-12T03:36:21;7.90;99.90
63802;DHT22;49949;43.060;25.624;2023-04-12T03:38:47;7.90;99.90
63802;DHT22;49949;43.060;25.624;2023-04-12T03:41:14;7.90;99.90
63802;DHT22;49949;43.060;25.624;2023-04-12T03:43:39;7.80;99.90
63802;DHT22;49949;43.060;25.624;2023-04-12T03:46:07;7.80;99.90
63802;DHT22;49949;43.060;25.624;2023-04-12T03:48:33;7.80;99.90
63802;DHT22;49949;43.060;25.624;2023-04-12T03:50:59;7.80;99.90
63802;DHT22;49949;43.060;25.624;2023-04-12T03:53:26;7.80;99.90
63802;DHT22;49949;43.060;25.624;2023-04-12T03:55:52;7.80;99.90
63802;DHT22;49949;43.060;25.624;2023-04-12T03:58:21;7.90;99.90
63802;DHT22;49949;43.060;25.624;2023-04-12T04:00:47;7.90;99.90
63802;DHT22;49949;43.060;25.624;2023-04-12T04:03:14;7.90;99.90
63802;DHT22;49949;43.060;25.624;2023-04-12T04:05:40;7.90;99.90
63802;DHT22;49949;43.060;25.624;2023-04-12T04:08:06;8.00;99.90
63802;DHT22;49949;43.060;25.624;2023-04-12T04:10:33;8.00;99.90
63802;DHT22;49949;43.060;25.624;2023-04-12T04:12:58;8.00;99.90
63802;DHT22;49949;43.060;25.624;2023-04-12T04:15:25;8.00;99.90
63802;DHT22;49949;43.060;25.624;2023-04-12T04:17:51;8.00;99.90
63802;DHT22;49949;43.060;25.624;2023-04-12T04:20:17;8.00;99.90
63802;DHT22;49949;43.060;25.624;2023-04-12T04:22:44;8.00;99.90
63802;DHT22;49949;43.060;25.624;2023-04-12T04:25:13;8.00;99.90
63802;DHT22;49949;43.060;25.624;2023-04-12T04:27:43;8.00;99.90
63802;DHT22;49949;43.060;25.624;2023-04-12T04:30:11;8.10;99.90
63802;DHT22;49949;43.060;25.624;2023-04-12T04:32:39;8.10;99.90
63802;DHT22;49949;43.060;25.624;2023-04-12T04:35:06;8.10;99.90
63802;DHT22;49949;43.060;25.624;2023-04-12T04:37:32;8.10;99.90
63802;DHT22;49949;43.060;25.624;2023-04-12T04:40:01;8.20;99.90
63802;DHT22;49949;43.060;25.624;2023-04-12T04:42:32;8.20;99.90
63802;DHT22;49949;43.060;25.624;2023-04-12T04:44:58;8.20;99.90
63802;DHT22;49949;43.060;25.624;2023-04-12T04:47:28;8.20;99.90
63802;DHT22;49949;43.060;25.624;2023-04-12T04:49:55;8.20;99.90
63802;DHT22;49949;43.060;25.624;2023-04-12T04:52:23;8.20;99.90
63802;DHT22;49949;43.060;25.624;2023-04-12T04:54:49;8.20;99.90
63802;DHT22;49949;43.060;25.624;2023-04-12T04:57:15;8.30;99.90
63802;DHT22;49949;43.060;25.624;2023-04-12T04:59:41;8.30;99.90
63802;DHT22;49949;43.060;25.624;2023-04-12T05:02:06;8.30;99.90
63802;DHT22;49949;43.060;25.624;2023-04-12T05:04:32;8.30;99.90
63802;DHT22;49949;43.060;25.624;2023-04-12T05:06:58;8.40;99.90
63802;DHT22;49949;43.060;25.624;2023-04-12T05:09:23;8.40;99.90
63802;DHT22;49949;43.060;25.624;2023-04-12T05:11:49;8.40;99.90
63802;DHT22;49949;43.060;25.624;2023-04-12T05:14:15;8.50;99.90
63802;DHT22;49949;43.060;25.624;2023-04-12T05:16:41;8.50;99.90
63802;DHT22;49949;43.060;25.624;2023-04-12T05:19:07;8.50;99.90
63802;DHT22;49949;43.060;25.624;2023-04-12T05:21:33;8.50;99.90
63802;DHT22;49949;43.060;25.624;2023-04-12T05:23:58;8.50;99.90
63802;DHT22;49949;43.060;25.624;2023-04-12T05:26:24;8.60;99.90
63802;DHT22;49949;43.060;25.624;2023-04-12T05:28:50;8.60;99.90
63802;DHT22;49949;43.060;25.624;2023-04-12T05:31:16;8.60;99.90
63802;DHT22;49949;43.060;25.624;2023-04-12T05:33:42;8.60;99.90
63802;DHT22;49949;43.060;25.624;2023-04-12T05:36:10;8.60;99.90
63802;DHT22;49949;43.060;25.624;2023-04-12T05:38:35;8.70;99.90
63802;DHT22;49949;43.060;25.624;2023-04-12T05:41:01;8.70;99.90
63802;DHT22;49949;43.060;25.624;2023-04-12T05:43:30;8.70;99.90
63802;DHT22;49949;43.060;25.624;2023-04-12T05:45:57;8.70;99.90
63802;DHT22;49949;43.060;25.624;2023-04-12T05:48:23;8.70;99.90
63802;DHT22;49949;43.060;25.624;2023-04-12T05:50:50;8.80;99.90
63802;DHT22;49949;43.060;25.624;2023-04-12T05:53:16;8.80;99.90
63802;DHT22;49949;43.060;25.624;2023-04-12T05:55:42;8.80;99.90
63802;DHT22;49949;43.060;25.624;2023-04-12T05:58:08;8.80;99.90
63802;DHT22;49949;43.060;25.624;2023-04-12T06:00:35;8.80;99.90
63802;DHT22;49949;43.060;25.624;2023-04-12T06:03:01;8.80;99.90
63802;DHT22;49949;43.060;25.624;2023-04-12T06:05:29;8.90;99.90
63802;DHT22;49949;43.060;25.624;2023-04-12T06:07:54;8.90;99.90
63802;DHT22;49949;43.060;25.624;2023-04-12T06:10:20;9.00;99.90
63802;DHT22;49949;43.060;25.624;2023-04-12T06:12:46;9.00;99.90
63802;DHT22;49949;43.060;25.624;2023-04-12T06:15:12;9.10;99.90
63802;DHT22;49949;43.060;25.624;2023-04-12T06:17:37;9.20;99.90
63802;DHT22;49949;43.060;25.624;2023-04-12T06:20:04;9.30;99.90
63802;DHT22;49949;43.060;25.624;2023-04-12T06:22:34;9.30;99.90
63802;DHT22;49949;43.060;25.624;2023-04-12T06:25:00;9.30;99.90
63802;DHT22;49949;43.060;25.624;2023-04-12T06:27:26;9.40;99.90
63802;DHT22;49949;43.060;25.624;2023-04-12T06:29:52;9.50;99.90
63802;DHT22;49949;43.060;25.624;2023-04-12T06:32:18;9.50;99.90
63802;DHT22;49949;43.060;25.624;2023-04-12T06:34:43;9.60;99.90
63802;DHT22;49949;43.060;25.624;2023-04-12T06:37:09;9.60;99.90
63802;DHT22;49949;43.060;25.624;2023-04-12T06:39:35;9.70;99.90
63802;DHT22;49949;43.060;25.624;2023-04-12T06:42:01;9.80;99.90
63802;DHT22;49949;43.060;25.624;2023-04-12T06:44:27;9.90;99.90
63802;DHT22;49949;43.060;25.624;2023-04-12T06:46:53;9.90;99.90
63802;DHT22;49949;43.060;25.624;2023-04-12T06:49:18;10.00;99.90
63802;DHT22;49949;43.060;25.624;2023-04-12T06:51:44;10.10;99.90
63802;DHT22;49949;43.060;25.624;2023-04-12T06:54:11;10.10;99.90
63802;DHT22;49949;43.060;25.624;2023-04-12T06:56:37;10.20;99.90
63802;DHT22;49949;43.060;25.624;2023-04-12T06:59:04;10.30;99.90
63802;DHT22;49949;43.060;25.624;2023-04-12T07:01:30;10.40;99.90
63802;DHT22;49949;43.060;25.624;2023-04-12T07:03:55;10.40;99.90
63802;DHT22;49949;43.060;25.624;2023-04-12T07:06:21;10.50;99.90
63802;DHT22;49949;43.060;25.624;2023-04-12T07:08:47;10.60;99.90
63802;DHT22;49949;43.060;25.624;2023-04-12T07:11:13;10.70;99.90
63802;DHT22;49949;43.060;25.624;2023-04-12T07:13:38;10.70;99.90
63802;DHT22;49949;43.060;25.624;2023-04-12T07:16:04;10.80;99.90
63802;DHT22;49949;43.060;25.624;2023-04-12T07:18:30;10.90;99.90
63802;DHT22;49949;43.060;25.624;2023-04-12T07:20:57;10.90;99.90
63802;DHT22;49949;43.060;25.624;2023-04-12T07:23:23;11.00;99.90
63802;DHT22;49949;43.060;25.624;2023-04-12T07:25:52;11.10;99.90
63802;DHT22;49949;43.060;25.624;2023-04-12T07:28:18;11.20;99.90
63802;DHT22;49949;43.060;25.624;2023-04-12T07:30:45;11.30;99.90
63802;DHT22;49949;43.060;25.624;2023-04-12T07:33:10;11.50;99.90
63802;DHT22;49949;43.060;25.624;2023-04-12T07:35:36;11.60;99.90
63802;DHT22;49949;43.060;25.624;2023-04-12T07:38:02;11.80;99.90
63802;DHT22;49949;43.060;25.624;2023-04-12T07:40:29;11.80;99.90
63802;DHT22;49949;43.060;25.624;2023-04-12T07:42:55;11.90;99.90
63802;DHT22;49949;43.060;25.624;2023-04-12T07:45:21;12.10;99.90
63802;DHT22;49949;43.060;25.624;2023-04-12T07:47:46;12.10;99.90
63802;DHT22;49949;43.060;25.624;2023-04-12T07:50:13;12.00;99.90
63802;DHT22;49949;43.060;25.624;2023-04-12T07:52:39;12.10;99.90
63802;DHT22;49949;43.060;25.624;2023-04-12T07:55:05;11.90;99.90
63802;DHT22;49949;43.060;25.624;2023-04-12T07:57:31;11.80;99.90
63802;DHT22;49949;43.060;25.624;2023-04-12T07:59:56;11.80;99.90
63802;DHT22;49949;43.060;25.624;2023-04-12T08:02:22;11.80;99.90
63802;DHT22;49949;43.060;25.624;2023-04-12T08:04:52;11.90;99.90
63802;DHT22;49949;43.060;25.624;2023-04-12T08:07:18;12.00;99.90
63802;DHT22;49949;43.060;25.624;2023-04-12T08:09:46;12.10;99.90
63802;DHT22;49949;43.060;25.624;2023-04-12T08:12:12;12.10;99.90
63802;DHT22;49949;43.060;25.624;2023-04-12T08:14:38;12.10;99.90
63802;DHT22;49949;43.060;25.624;2023-04-12T08:17:03;12.20;99.90
63802;DHT22;49949;43.060;25.624;2023-04-12T08:19:29;12.30;99.90
63802;DHT22;49949;43.060;25.624;2023-04-12T08:21:55;12.30;99.90
63802;DHT22;49949;43.060;25.624;2023-04-12T08:24:20;12.30;99.90
63802;DHT22;49949;43.060;25.624;2023-04-12T08:26:46;12.20;99.90
63802;DHT22;49949;43.060;25.624;2023-04-12T08:29:12;12.40;99.90
63802;DHT22;49949;43.060;25.624;2023-04-12T08:31:38;12.50;99.90
63802;DHT22;49949;43.060;25.624;2023-04-12T08:34:04;12.60;99.90
63802;DHT22;49949;43.060;25.624;2023-04-12T08:36:30;12.60;99.90
63802;DHT22;49949;43.060;25.624;2023-04-12T08:38:59;12.70;99.90
63802;DHT22;49949;43.060;25.624;2023-04-12T08:41:25;12.60;99.90
63802;DHT22;49949;43.060;25.624;2023-04-12T08:43:51;12.90;99.90
63802;DHT22;49949;43.060;25.624;2023-04-12T08:46:17;13.20;99.90
63802;DHT22;49949;43.060;25.624;2023-04-12T08:48:48;13.70;99.90
63802;DHT22;49949;43.060;25.624;2023-04-12T08:51:19;13.80;99.90
63802;DHT22;49949;43.060;25.624;2023-04-12T08:53:45;13.90;99.90
63802;DHT22;49949;43.060;25.624;2023-04-12T08:56:11;13.80;99.90
63802;DHT22;49949;43.060;25.624;2023-04-12T08:58:45;13.70;99.90
63802;DHT22;49949;43.060;25.624;2023-04-12T09:01:18;13.60;99.90
63802;DHT22;49949;43.060;25.624;2023-04-12T09:03:45;13.50;99.90
63802;DHT22;49949;43.060;25.624;2023-04-12T09:06:11;13.50;99.90
63802;DHT22;49949;43.060;25.624;2023-04-12T09:08:50;13.50;99.90
63802;DHT22;49949;43.060;25.624;2023-04-12T09:11:23;13.60;99.90
63802;DHT22;49949;43.060;25.624;2023-04-12T09:13:49;13.80;99.90
63802;DHT22;49949;43.060;25.624;2023-04-12T09:16:15;13.80;99.90
63802;DHT22;49949;43.060;25.624;2023-04-12T09:18:50;13.90;99.90
63802;DHT22;49949;43.060;25.624;2023-04-12T09:21:17;13.90;99.90
63802;DHT22;49949;43.060;25.624;2023-04-12T09:23:42;14.00;99.90
63802;DHT22;49949;43.060;25.624;2023-04-12T09:26:09;14.00;99.90
63802;DHT22;49949;43.060;25.624;2023-04-12T09:28:50;14.00;99.90
63802;DHT22;49949;43.060;25.624;2023-04-12T09:31:16;13.90;99.90
63802;DHT22;49949;43.060;25.624;2023-04-12T09:33:42;14.00;99.90
63802;DHT22;49949;43.060;25.624;2023-04-12T09:36:08;14.20;99.90
63802;DHT22;49949;43.060;25.624;2023-04-12T09:38:37;14.30;99.90
63802;DHT22;49949;43.060;25.624;2023-04-12T09:41:20;14.30;99.90
63802;DHT22;49949;43.060;25.624;2023-04-12T09:43:47;14.40;99.90
63802;DHT22;49949;43.060;25.624;2023-04-12T09:46:13;14.40;99.90
63802;DHT22;49949;43.060;25.624;2023-04-12T09:48:40;14.50;99.90
63802;DHT22;49949;43.060;25.624;2023-04-12T09:51:07;14.60;99.90
63802;DHT22;49949;43.060;25.624;2023-04-12T09:53:34;14.60;99.90
63802;DHT22;49949;43.060;25.624;2023-04-12T09:56:02;14.50;99.90
63802;DHT22;49949;43.060;25.624;2023-04-12T09:58:29;14.50;99.90
63802;DHT22;49949;43.060;25.624;2023-04-12T10:00:56;14.40;99.90
63802;DHT22;49949;43.060;25.624;2023-04-12T10:03:24;14.40;99.90
63802;DHT22;49949;43.060;25.624;2023-04-12T10:05:50;14.60;99.90
63802;DHT22;49949;43.060;25.624;2023-04-12T10:08:18;14.70;99.90
63802;DHT22;49949;43.060;25.624;2023-04-12T10:10:44;14.90;99.90
63802;DHT22;49949;43.060;25.624;2023-04-12T10:13:11;15.00;99.90
63802;DHT22;49949;43.060;25.624;2023-04-12T10:15:37;15.00;99.90
63802;DHT22;49949;43.060;25.624;2023-04-12T10:18:05;14.90;99.90
63802;DHT22;49949;43.060;25.624;2023-04-12T10:20:32;15.00;99.90
63802;DHT22;49949;43.060;25.624;2023-04-12T10:22:57;15.20;99.90
63802;DHT22;49949;43.060;25.624;2023-04-12T10:25:25;15.30;99.90
63802;DHT22;49949;43.060;25.624;2023-04-12T10:27:51;15.50;99.90
63802;DHT22;49949;43.060;25.624;2023-04-12T10:30:18;15.50;99.90
63802;DHT22;49949;43.060;25.624;2023-04-12T10:32:45;15.20;99.90
63802;DHT22;49949;43.060;25.624;2023-04-12T10:35:11;15.20;99.90
63802;DHT22;49949;43.060;25.624;2023-04-12T10:38:02;15.00;99.90
63802;DHT22;49949;43.060;25.624;2023-04-12T10:40:29;15.10;99.90
63802;DHT22;49949;43.060;25.624;2023-04-12T10:45:43;15.30;98.80
63802;DHT22;49949;43.060;25.624;2023-04-12T10:53:50;14.90;99.90
63802;DHT22;49949;43.060;25.624;2023-04-12T10:59:01;14.70;99.90
63802;DHT22;49949;43.060;25.624;2023-04-12T11:01:28;14.70;99.90
63802;DHT22;49949;43.060;25.624;2023-04-12T11:06:58;14.60;99.90
63802;DHT22;49949;43.060;25.624;2023-04-12T11:19:45;14.80;97.30
63802;DHT22;49949;43.060;25.624;2023-04-12T11:22:12;15.00;99.90
63802;DHT22;49949;43.060;25.624;2023-04-12T11:24:40;15.00;97.30
63802;DHT22;49949;43.060;25.624;2023-04-12T11:27:07;15.10;97.90
63802;DHT22;49949;43.060;25.624;2023-04-12T11:29:33;15.20;96.40
63802;DHT22;49949;43.060;25.624;2023-04-12T11:32:04;15.40;95.30
63802;DHT22;49949;43.060;25.624;2023-04-12T11:34:35;15.50;94.70
63802;DHT22;49949;43.060;25.624;2023-04-12T11:37:02;15.50;93.00
63802;DHT22;49949;43.060;25.624;2023-04-12T11:39:41;15.30;95.00
63802;DHT22;49949;43.060;25.624;2023-04-12T11:42:16;15.10;95.60
63802;DHT22;49949;43.060;25.624;2023-04-12T11:44:43;15.20;94.00
63802;DHT22;49949;43.060;25.624;2023-04-12T11:47:19;15.30;92.50
63802;DHT22;49949;43.060;25.624;2023-04-12T11:49:50;15.20;93.00
63802;DHT22;49949;43.060;25.624;2023-04-12T11:52:17;15.20;95.90
63802;DHT22;49949;43.060;25.624;2023-04-12T11:54:45;15.20;96.20
63802;DHT22;49949;43.060;25.624;2023-04-12T11:57:12;14.90;97.30
63802;DHT22;49949;43.060;25.624;2023-04-12T11:59:38;14.70;98.40
63802;DHT22;49949;43.060;25.624;2023-04-12T12:02:05;14.60;98.60
63802;DHT22;49949;43.060;25.624;2023-04-12T12:04:31;14.50;99.00
63802;DHT22;49949;43.060;25.624;2023-04-12T12:06:58;14.40;99.10
63802;DHT22;49949;43.060;25.624;2023-04-12T12:09:24;14.30;98.10
63802;DHT22;49949;43.060;25.624;2023-04-12T12:11:52;14.40;99.90
63802;DHT22;49949;43.060;25.624;2023-04-12T12:14:19;14.30;98.10
63802;DHT22;49949;43.060;25.624;2023-04-12T12:16:51;14.40;97.60
63802;DHT22;49949;43.060;25.624;2023-04-12T12:19:29;14.50;98.70
63802;DHT22;49949;43.060;25.624;2023-04-12T12:22:20;14.60;99.90
63802;DHT22;49949;43.060;25.624;2023-04-12T12:24:56;14.70;98.90
63802;DHT22;49949;43.060;25.624;2023-04-12T12:29:54;15.00;97.20
63802;DHT22;49949;43.060;25.624;2023-04-12T12:32:21;15.10;96.20
63802;DHT22;49949;43.060;25.624;2023-04-12T12:34:55;15.00;97.60
63802;DHT22;49949;43.060;25.624;2023-04-12T12:37:25;14.90;95.90
63802;DHT22;49949;43.060;25.624;2023-04-12T12:40:07;15.00;96.20
63802;DHT22;49949;43.060;25.624;2023-04-12T12:42:50;15.10;91.90
63802;DHT22;49949;43.060;25.624;2023-04-12T12:45:17;15.20;94.80
63802;DHT22;49949;43.060;25.624;2023-04-12T12:47:56;15.10;94.50
63802;DHT22;49949;43.060;25.624;2023-04-12T12:50:25;15.00;96.20
63802;DHT22;49949;43.060;25.624;2023-04-12T12:52:51;14.80;96.10
63802;DHT22;49949;43.060;25.624;2023-04-12T12:55:18;14.80;97.30
63802;DHT22;49949;43.060;25.624;2023-04-12T12:57:46;14.70;97.50
63802;DHT22;49949;43.060;25.624;2023-04-12T13:00:13;14.60;94.50
63802;DHT22;49949;43.060;25.624;2023-04-12T13:02:40;14.60;96.50
63802;DHT22;49949;43.060;25.624;2023-04-12T13:05:06;14.60;93.40
63802;DHT22;49949;43.060;25.624;2023-04-12T13:07:32;14.50;92.90
63802;DHT22;49949;43.060;25.624;2023-04-12T13:09:58;14.60;97.40
63802;DHT22;49949;43.060;25.624;2023-04-12T13:12:24;14.60;97.00
63802;DHT22;49949;43.060;25.624;2023-04-12T13:14:51;14.50;95.10
63802;DHT22;49949;43.060;25.624;2023-04-12T13:17:16;14.50;97.70
63802;DHT22;49949;43.060;25.624;2023-04-12T13:19:44;14.40;96.50
63802;DHT22;49949;43.060;25.624;2023-04-12T13:22:10;14.40;98.30
63802;DHT22;49949;43.060;25.624;2023-04-12T13:24:36;14.30;96.70
63802;DHT22;49949;43.060;25.624;2023-04-12T13:27:02;14.40;98.60
63802;DHT22;49949;43.060;25.624;2023-04-12T13:29:28;14.30;96.70
63802;DHT22;49949;43.060;25.624;2023-04-12T13:31:54;14.30;99.90
63802;DHT22;49949;43.060;25.624;2023-04-12T13:34:20;14.30;98.50
63802;DHT22;49949;43.060;25.624;2023-04-12T13:36:45;14.30;99.00
63802;DHT22;49949;43.060;25.624;2023-04-12T13:39:11;14.30;99.00
63802;DHT22;49949;43.060;25.624;2023-04-12T13:41:37;14.20;96.90
63802;DHT22;49949;43.060;25.624;2023-04-12T13:44:02;14.30;99.40
63802;DHT22;49949;43.060;25.624;2023-04-12T13:46:30;14.30;97.80
63802;DHT22;49949;43.060;25.624;2023-04-12T13:48:56;14.30;99.90
63802;DHT22;49949;43.060;25.624;2023-04-12T13:51:21;14.30;99.40
63802;DHT22;49949;43.060;25.624;2023-04-12T13:53:47;14.20;99.90
63802;DHT22;49949;43.060;25.624;2023-04-12T13:56:13;14.20;99.50
63802;DHT22;49949;43.060;25.624;2023-04-12T13:58:40;14.20;99.70
63802;DHT22;49949;43.060;25.624;2023-04-12T14:01:07;14.20;98.70
63802;DHT22;49949;43.060;25.624;2023-04-12T14:03:33;14.10;98.70
63802;DHT22;49949;43.060;25.624;2023-04-12T14:05:59;14.10;99.90
63802;DHT22;49949;43.060;25.624;2023-04-12T14:08:26;14.10;99.50
63802;DHT22;49949;43.060;25.624;2023-04-12T14:10:52;14.10;99.00
63802;DHT22;49949;43.060;25.624;2023-04-12T14:13:21;14.10;99.50
63802;DHT22;49949;43.060;25.624;2023-04-12T14:15:48;14.00;97.50
63802;DHT22;49949;43.060;25.624;2023-04-12T14:18:14;14.10;98.80
63802;DHT22;49949;43.060;25.624;2023-04-12T14:20:40;14.10;97.60
63802;DHT22;49949;43.060;25.624;2023-04-12T14:23:05;14.10;97.80
63802;DHT22;49949;43.060;25.624;2023-04-12T14:25:31;14.10;97.50
63802;DHT22;49949;43.060;25.624;2023-04-12T14:27:59;14.10;97.80
63802;DHT22;49949;43.060;25.624;2023-04-12T14:30:25;14.10;98.20
63802;DHT22;49949;43.060;25.624;2023-04-12T14:32:51;14.10;95.80
63802;DHT22;49949;43.060;25.624;2023-04-12T14:35:17;14.00;95.10
63802;DHT22;49949;43.060;25.624;2023-04-12T14:37:42;14.00;94.30
63802;DHT22;49949;43.060;25.624;2023-04-12T14:40:08;14.00;96.60
63802;DHT22;49949;43.060;25.624;2023-04-12T14:42:34;14.00;94.80
63802;DHT22;49949;43.060;25.624;2023-04-12T14:45:00;14.00;95.40
63802;DHT22;49949;43.060;25.624;2023-04-12T14:47:26;14.00;96.70
63802;DHT22;49949;43.060;25.624;2023-04-12T14:49:51;14.00;98.40
63802;DHT22;49949;43.060;25.624;2023-04-12T14:52:17;14.00;99.50
63802;DHT22;49949;43.060;25.624;2023-04-12T14:54:43;14.00;98.40
63802;DHT22;49949;43.060;25.624;2023-04-12T14:57:09;14.10;99.90
63802;DHT22;49949;43.060;25.624;2023-04-12T14:59:35;14.10;96.90
63802;DHT22;49949;43.060;25.624;2023-04-12T15:02:01;14.10;99.90
63802;DHT22;49949;43.060;25.624;2023-04-12T15:04:27;14.10;99.90
63802;DHT22;49949;43.060;25.624;2023-04-12T15:06:52;14.10;99.90
63802;DHT22;49949;43.060;25.624;2023-04-12T15:09:18;14.00;99.50
63802;DHT22;49949;43.060;25.624;2023-04-12T15:11:49;13.90;99.90
63802;DHT22;49949;43.060;25.624;2023-04-12T15:14:15;13.90;99.90
63802;DHT22;49949;43.060;25.624;2023-04-12T15:16:45;13.90;99.60
63802;DHT22;49949;43.060;25.624;2023-04-12T15:19:13;13.90;98.10
63802;DHT22;49949;43.060;25.624;2023-04-12T15:21:40;13.90;96.20
63802;DHT22;49949;43.060;25.624;2023-04-12T15:24:05;13.80;95.10
63802;DHT22;49949;43.060;25.624;2023-04-12T15:26:33;13.90;95.90
63802;DHT22;49949;43.060;25.624;2023-04-12T15:28:59;13.90;96.50
63802;DHT22;49949;43.060;25.624;2023-04-12T15:31:25;13.90;96.00
63802;DHT22;49949;43.060;25.624;2023-04-12T15:33:51;13.90;96.10
63802;DHT22;49949;43.060;25.624;2023-04-12T15:36:17;14.00;95.70
63802;DHT22;49949;43.060;25.624;2023-04-12T15:38:43;14.00;98.10
63802;DHT22;49949;43.060;25.624;2023-04-12T15:41:09;14.00;96.10
63802;DHT22;49949;43.060;25.624;2023-04-12T15:43:35;14.10;96.40
63802;DHT22;49949;43.060;25.624;2023-04-12T15:46:01;14.00;96.60
63802;DHT22;49949;43.060;25.624;2023-04-12T15:48:27;14.00;94.40
63802;DHT22;49949;43.060;25.624;2023-04-12T15:50:54;14.10;94.60
63802;DHT22;49949;43.060;25.624;2023-04-12T15:53:22;14.10;95.40
63802;DHT22;49949;43.060;25.624;2023-04-12T15:55:49;14.10;95.40
63802;DHT22;49949;43.060;25.624;2023-04-12T15:58:19;14.10;95.00
63802;DHT22;49949;43.060;25.624;2023-04-12T16:00:45;14.10;94.50
63802;DHT22;49949;43.060;25.624;2023-04-12T16:03:12;14.10;94.50
63802;DHT22;49949;43.060;25.624;2023-04-12T16:05:41;14.00;95.10
63802;DHT22;49949;43.060;25.624;2023-04-12T16:08:07;14.00;94.00